Time;durP1;ratioP1;P1;durP2;ratioP2;P2;SDS_P1;SDS_P2;PMS_P1;PMS_P2;Temp;Humidity;BMP_temperature;BMP_pressure;BME280_temperature;BME280_humidity;BME280_pressure;Samples;Min_cycle;Max_cycle;Signal;HPM_P1;HPM_P2
2022/09/27 00:00:49;;;;;;;53.85;40.58;;;15.70;99.90;;;;;;5125506;27;20064;-69
2022/09/27 00:03:16;;;;;;;55.78;39.58;;;15.70;99.90;;;;;;5097715;28;21030;-69
2022/09/27 00:05:43;;;;;;;49.42;34.33;;;15.70;99.90;;;;;;5112966;27;20043;-69
2022/09/27 00:08:11;;;;;;;45.63;32.55;;;15.80;99.90;;;;;;5115731;28;20031;-68
2022/09/27 00:10:38;;;;;;;48.83;32.78;;;15.80;99.90;;;;;;5094919;28;20036;-68
2022/09/27 00:13:05;;;;;;;44.20;32.55;;;15.70;99.90;;;;;;5114341;28;20498;-68
2022/09/27 00:15:33;;;;;;;47.47;33.30;;;15.70;99.90;;;;;;5115964;28;20055;-68
2022/09/27 00:18:01;;;;;;;45.42;32.97;;;15.70;99.90;;;;;;5117119;28;20044;-69
2022/09/27 00:20:29;;;;;;;46.60;32.20;;;15.70;99.90;;;;;;5116095;28;20039;-69
2022/09/27 00:22:56;;;;;;;53.25;34.80;;;15.70;99.90;;;;;;5115675;28;20036;-69
2022/09/27 00:25:23;;;;;;;49.22;36.35;;;15.70;99.90;;;;;;5106282;28;20044;-69
2022/09/27 00:27:51;;;;;;;55.30;38.88;;;15.70;99.90;;;;;;5095242;28;20502;-69
2022/09/27 00:30:18;;;;;;;50.95;38.05;;;15.70;99.90;;;;;;5076449;28;20059;-69
2022/09/27 00:32:46;;;;;;;51.88;38.58;;;15.70;99.90;;;;;;5094682;28;20040;-68
2022/09/27 00:35:15;;;;;;;55.83;41.58;;;15.60;99.90;;;;;;5107652;28;20035;-68
2022/09/27 00:37:43;;;;;;;53.60;39.80;;;15.60;99.90;;;;;;5114361;28;20032;-68
2022/09/27 00:40:10;;;;;;;66.97;43.40;;;15.60;99.90;;;;;;5115004;28;20406;-68
2022/09/27 00:42:38;;;;;;;59.60;41.55;;;15.50;99.90;;;;;;5115022;28;20391;-68
2022/09/27 00:45:12;;;;;;;63.33;40.47;;;15.50;99.90;;;;;;5096169;28;20040;-68
2022/09/27 00:47:51;;;;;;;60.72;40.78;;;15.50;99.90;;;;;;5086537;28;20051;-68
2022/09/27 00:50:31;;;;;;;61.03;39.50;;;15.50;99.90;;;;;;5114907;28;20122;-68
2022/09/27 00:53:10;;;;;;;54.60;37.47;;;15.60;99.90;;;;;;5093013;28;20048;-68
2022/09/27 00:55:42;;;;;;;48.28;33.45;;;15.60;99.90;;;;;;5094287;28;20068;-68
2022/09/27 00:58:10;;;;;;;67.10;38.67;;;15.60;99.90;;;;;;5076245;28;20070;-68
2022/09/27 01:00:42;;;;;;;75.63;43.15;;;15.50;99.90;;;;;;5075465;28;20054;-68
2022/09/27 01:03:13;;;;;;;83.78;45.33;;;15.60;99.90;;;;;;5094253;28;20036;-68
2022/09/27 01:05:42;;;;;;;94.80;48.42;;;15.50;99.90;;;;;;5102479;28;20112;-68
2022/09/27 01:08:09;;;;;;;92.03;46.00;;;15.50;99.90;;;;;;5089342;28;20077;-69
2022/09/27 01:10:43;;;;;;;79.72;43.25;;;15.60;99.90;;;;;;5075841;28;20410;-68
2022/09/27 01:13:19;;;;;;;109.05;46.72;;;15.50;99.90;;;;;;5102204;28;20049;-68
2022/09/27 01:15:53;;;;;;;100.93;44.83;;;15.50;99.90;;;;;;5112516;28;20043;-68
2022/09/27 01:18:31;;;;;;;94.57;43.25;;;15.50;99.90;;;;;;5114625;28;20055;-68
2022/09/27 01:21:29;;;;;;;71.50;39.65;;;15.50;99.90;;;;;;5095447;28;20078;-68
2022/09/27 01:24:23;;;;;;;74.47;39.20;;;15.50;99.90;;;;;;5101387;28;20047;-68
2022/09/27 01:27:21;;;;;;;92.03;39.05;;;15.50;99.90;;;;;;5075579;28;20047;-68
2022/09/27 01:30:04;;;;;;;110.85;38.97;;;15.60;99.90;;;;;;5075619;28;20056;-68
2022/09/27 01:32:36;;;;;;;78.18;35.70;;;15.50;99.90;;;;;;5076487;28;20516;-71
2022/09/27 01:35:13;;;;;;;87.82;33.75;;;15.40;99.90;;;;;;5075963;28;20048;-68
2022/09/27 01:37:51;;;;;;;94.00;36.15;;;15.40;99.90;;;;;;5076158;28;20529;-67
2022/09/27 01:40:28;;;;;;;63.60;36.05;;;15.30;99.90;;;;;;5075936;28;20052;-68
2022/09/27 01:43:34;;;;;;;65.65;35.45;;;15.30;99.90;;;;;;5006625;28;20045;-68
2022/09/27 01:46:08;;;;;;;53.35;31.40;;;15.40;99.90;;;;;;5065585;28;20437;-68
2022/09/27 01:49:12;;;;;;;73.18;34.05;;;15.40;99.90;;;;;;5093454;28;20048;-69
2022/09/27 01:51:44;;;;;;;66.53;32.15;;;15.40;99.90;;;;;;5093340;28;20036;-69
2022/09/27 01:54:16;;;;;;;56.53;32.22;;;15.30;99.90;;;;;;5074530;28;20202;-68
2022/09/27 01:57:05;;;;;;;50.20;32.47;;;15.30;99.90;;;;;;5093630;28;20054;-68
2022/09/27 01:59:42;;;;;;;54.00;32.33;;;15.20;99.90;;;;;;5075441;28;20051;-68
2022/09/27 02:02:32;;;;;;;49.45;29.98;;;15.30;99.90;;;;;;5123604;28;20066;-68
2022/09/27 02:05:45;;;;;;;50.67;30.25;;;15.20;99.90;;;;;;5071182;28;20132;-69
2022/09/27 02:08:37;;;;;;;52.58;29.88;;;15.20;99.90;;;;;;5051900;28;20071;-69
2022/09/27 02:11:13;;;;;;;54.30;29.92;;;15.20;99.90;;;;;;5104611;28;20043;-69
2022/09/27 02:13:49;;;;;;;92.35;32.50;;;15.10;99.90;;;;;;5114465;28;20134;-69
2022/09/27 02:16:53;;;;;;;47.30;28.63;;;15.20;99.90;;;;;;5121241;28;20047;-69
2022/09/27 02:19:47;;;;;;;58.42;30.15;;;15.10;99.90;;;;;;5123978;28;20045;-69
2022/09/27 02:22:21;;;;;;;71.90;29.63;;;15.10;99.90;;;;;;5130748;28;20043;-68
2022/09/27 02:24:54;;;;;;;51.17;30.02;;;14.90;99.90;;;;;;5124838;28;20044;-68
2022/09/27 02:27:27;;;;;;;49.05;31.38;;;14.90;99.90;;;;;;5123332;28;20126;-68
2022/09/27 02:30:01;;;;;;;49.17;30.42;;;14.90;99.90;;;;;;5115785;28;20047;-68
2022/09/27 02:32:30;;;;;;;40.67;27.98;;;14.90;99.90;;;;;;5115382;28;20050;-68
2022/09/27 02:35:01;;;;;;;42.70;29.15;;;14.90;99.90;;;;;;5114083;28;20039;-68
2022/09/27 02:37:30;;;;;;;37.95;27.67;;;14.90;99.90;;;;;;5125181;28;20050;-68
2022/09/27 02:39:59;;;;;;;39.42;27.10;;;15.00;99.90;;;;;;5114673;28;20047;-68
2022/09/27 02:42:28;;;;;;;43.33;28.80;;;15.00;99.90;;;;;;5115494;28;20451;-68
2022/09/27 02:44:55;;;;;;;47.22;29.42;;;15.00;99.90;;;;;;5115847;28;20452;-68
2022/09/27 02:47:41;;;;;;;55.97;30.80;;;15.00;99.90;;;;;;5115250;28;20058;-68
2022/09/27 02:50:38;;;;;;;41.95;28.95;;;15.00;99.90;;;;;;5115652;28;20049;-69
2022/09/27 02:53:38;;;;;;;56.17;27.60;;;15.00;99.90;;;;;;5114927;28;20039;-68
2022/09/27 02:56:31;;;;;;;44.67;28.40;;;15.00;99.90;;;;;;5133903;27;20039;-69
2022/09/27 02:59:13;;;;;;;46.85;30.17;;;14.90;99.90;;;;;;5125789;28;20051;-68
2022/09/27 03:02:10;;;;;;;53.50;31.42;;;15.00;99.90;;;;;;5102130;28;20123;-68
2022/09/27 03:04:55;;;;;;;43.33;28.85;;;14.90;99.90;;;;;;5111268;28;20044;-67
2022/09/27 03:07:23;;;;;;;39.03;27.73;;;14.90;99.90;;;;;;5094438;28;20568;-67
2022/09/27 03:09:54;;;;;;;35.72;26.02;;;14.90;99.90;;;;;;5110218;28;20075;-68
2022/09/27 03:12:24;;;;;;;37.80;26.85;;;14.90;99.90;;;;;;5089422;28;20040;-67
2022/09/27 03:14:53;;;;;;;34.38;25.70;;;14.80;99.90;;;;;;5079224;28;20044;-67
2022/09/27 03:17:40;;;;;;;45.08;27.92;;;14.80;99.90;;;;;;5108904;28;20062;-67
2022/09/27 03:20:26;;;;;;;37.88;27.00;;;14.80;99.90;;;;;;5112350;28;20505;-67
2022/09/27 03:23:04;;;;;;;36.30;25.25;;;14.80;99.90;;;;;;5096075;28;20050;-67
2022/09/27 03:25:33;;;;;;;34.63;25.40;;;14.80;99.90;;;;;;5098331;28;20161;-67
2022/09/27 03:28:01;;;;;;;37.03;26.38;;;14.80;99.90;;;;;;5097249;28;20581;-69
2022/09/27 03:30:29;;;;;;;35.97;27.20;;;14.80;99.90;;;;;;5114383;28;20039;-68
2022/09/27 03:32:56;;;;;;;40.33;28.27;;;14.90;99.90;;;;;;5097436;28;20035;-68
2022/09/27 03:35:38;;;;;;;40.90;27.60;;;14.90;99.90;;;;;;5093269;28;20047;-68
2022/09/27 03:38:06;;;;;;;42.47;28.15;;;14.90;99.90;;;;;;5100707;28;20043;-67
2022/09/27 03:40:35;;;;;;;42.00;29.50;;;14.90;99.90;;;;;;5114152;28;20044;-68
2022/09/27 03:43:03;;;;;;;48.30;30.33;;;14.90;99.90;;;;;;5101240;28;20150;-68
2022/09/27 03:45:33;;;;;;;48.17;31.67;;;14.90;99.90;;;;;;5098952;28;20039;-68
2022/09/27 03:48:03;;;;;;;52.35;32.90;;;14.90;99.90;;;;;;5100772;28;20040;-69
2022/09/27 03:50:31;;;;;;;49.28;31.33;;;15.00;99.90;;;;;;5089135;28;20135;-68
2022/09/27 03:52:59;;;;;;;40.15;26.92;;;15.00;99.90;;;;;;5095104;28;20040;-68
2022/09/27 03:55:26;;;;;;;35.03;25.42;;;15.00;99.90;;;;;;5076563;28;20101;-68
2022/09/27 03:57:55;;;;;;;34.67;24.15;;;15.00;99.90;;;;;;5077183;28;20077;-67
2022/09/27 04:00:23;;;;;;;33.60;25.27;;;15.00;99.90;;;;;;5099767;28;20063;-68
2022/09/27 04:02:50;;;;;;;32.10;23.58;;;15.00;99.90;;;;;;5148330;27;20038;-67
2022/09/27 04:05:24;;;;;;;30.88;23.35;;;15.00;99.90;;;;;;5146254;27;20055;-68
2022/09/27 04:07:56;;;;;;;39.08;26.17;;;15.00;99.90;;;;;;5106310;27;20773;-68
2022/09/27 04:10:24;;;;;;;37.53;24.92;;;15.00;99.90;;;;;;5138244;27;20126;-68
2022/09/27 04:12:52;;;;;;;34.92;24.98;;;14.90;99.90;;;;;;5123073;27;20035;-68
2022/09/27 04:15:23;;;;;;;39.60;25.02;;;14.90;99.90;;;;;;5117271;27;20043;-68
2022/09/27 04:17:51;;;;;;;38.05;26.23;;;14.90;99.90;;;;;;5135700;27;20070;-68
2022/09/27 04:20:24;;;;;;;41.58;26.17;;;14.80;99.90;;;;;;5135917;27;20089;-68
2022/09/27 04:22:52;;;;;;;47.97;26.60;;;14.80;99.90;;;;;;5117238;27;20100;-68
2022/09/27 04:25:20;;;;;;;41.00;26.10;;;14.80;99.90;;;;;;5116909;27;20081;-68
2022/09/27 04:27:53;;;;;;;51.25;29.58;;;14.80;99.90;;;;;;5117083;27;20047;-68
2022/09/27 04:30:23;;;;;;;60.03;33.17;;;14.80;99.90;;;;;;5117340;27;20043;-68
2022/09/27 04:32:59;;;;;;;67.35;35.25;;;14.80;99.90;;;;;;5135075;27;20040;-68
2022/09/27 04:38:30;;;;;;;64.63;35.10;;;14.80;99.90;;;;;;5117321;27;20050;-68
2022/09/27 04:41:00;;;;;;;114.85;51.53;;;14.90;99.90;;;;;;5118817;27;20464;-67
2022/09/27 04:43:29;;;;;;;84.40;45.30;;;14.80;99.90;;;;;;5121612;27;20065;-68
2022/09/27 04:45:58;;;;;;;94.15;44.63;;;14.80;99.90;;;;;;5129989;27;20039;-68
2022/09/27 04:48:26;;;;;;;98.57;39.30;;;14.80;99.90;;;;;;5130093;27;20501;-68
2022/09/27 04:50:57;;;;;;;98.30;37.22;;;14.70;99.90;;;;;;5129434;27;20527;-68
2022/09/27 04:53:25;;;;;;;93.57;36.00;;;14.70;99.90;;;;;;5137302;27;20046;-67
2022/09/27 04:55:54;;;;;;;195.10;42.42;;;14.70;99.90;;;;;;5137952;27;20042;-68
2022/09/27 04:58:21;;;;;;;72.38;33.95;;;14.60;99.90;;;;;;5136692;27;20133;-67
2022/09/27 05:00:51;;;;;;;63.72;33.47;;;14.60;99.90;;;;;;5123260;27;20057;-68
2022/09/27 05:03:52;;;;;;;56.30;30.40;;;14.50;99.90;;;;;;5115407;27;20120;-68
2022/09/27 05:06:19;;;;;;;95.25;25.25;;;14.50;99.90;;;;;;5110854;27;20051;-68
2022/09/27 05:08:47;;;;;;;100.03;27.52;;;14.40;99.90;;;;;;5095988;28;20502;-68
2022/09/27 05:11:25;;;;;;;47.97;27.15;;;14.40;99.90;;;;;;5115860;27;20394;-68
2022/09/27 05:14:12;;;;;;;44.30;26.90;;;14.40;99.90;;;;;;5140327;27;20042;-68
2022/09/27 05:17:07;;;;;;;40.83;24.50;;;14.40;99.90;;;;;;5096167;27;20157;-68
2022/09/27 05:19:44;;;;;;;34.55;22.60;;;14.50;99.90;;;;;;5145835;27;20043;-68
2022/09/27 05:22:41;;;;;;;30.63;21.75;;;14.50;99.90;;;;;;5056180;27;20096;-67
2022/09/27 05:25:09;;;;;;;40.72;20.60;;;14.40;99.90;;;;;;5136569;27;20486;-68
2022/09/27 05:27:36;;;;;;;28.92;20.73;;;14.50;99.90;;;;;;5137277;27;20047;-68
2022/09/27 05:30:06;;;;;;;32.08;21.52;;;14.50;99.90;;;;;;5136128;27;20070;-68
2022/09/27 05:32:55;;;;;;;30.65;18.88;;;14.50;99.90;;;;;;5126513;27;20038;-68
2022/09/27 05:35:27;;;;;;;30.98;18.42;;;14.50;99.90;;;;;;5134559;27;20497;-68
2022/09/27 05:37:58;;;;;;;33.05;20.00;;;14.50;99.90;;;;;;5124675;27;20094;-68
2022/09/27 05:40:29;;;;;;;24.33;18.90;;;14.50;99.90;;;;;;5127284;27;20101;-68
2022/09/27 05:42:57;;;;;;;23.40;19.00;;;14.70;99.90;;;;;;5154458;27;20039;-68
2022/09/27 05:45:25;;;;;;;25.50;19.92;;;14.80;99.90;;;;;;5136275;27;20177;-68
2022/09/27 05:47:56;;;;;;;33.28;23.13;;;14.90;99.90;;;;;;5135987;27;20457;-68
2022/09/27 05:50:24;;;;;;;37.20;24.10;;;15.00;99.90;;;;;;5118637;27;20154;-68
2022/09/27 05:52:53;;;;;;;36.10;24.92;;;15.00;99.90;;;;;;5144669;27;20042;-69
2022/09/27 05:55:22;;;;;;;46.42;24.20;;;15.10;99.90;;;;;;5134481;27;20412;-68
2022/09/27 05:57:56;;;;;;;36.15;22.95;;;15.20;99.90;;;;;;5135943;27;20043;-68
2022/09/27 06:00:27;;;;;;;40.65;26.15;;;15.20;99.90;;;;;;5135716;27;20050;-67
2022/09/27 06:02:57;;;;;;;45.83;27.35;;;15.40;99.90;;;;;;5126839;28;20043;-68
2022/09/27 06:05:49;;;;;;;37.28;26.17;;;15.60;99.90;;;;;;5135868;27;20150;-68
2022/09/27 06:08:39;;;;;;;48.80;30.48;;;15.80;99.90;;;;;;5135521;27;20043;-68
2022/09/27 06:11:11;;;;;;;45.00;30.23;;;15.80;99.90;;;;;;5124263;27;20501;-69
2022/09/27 06:13:39;;;;;;;40.95;25.52;;;16.00;99.90;;;;;;5115547;28;20076;-68
2022/09/27 06:16:09;;;;;;;34.40;25.27;;;16.10;99.90;;;;;;5115303;28;20047;-67
2022/09/27 06:18:38;;;;;;;38.72;28.85;;;16.30;99.90;;;;;;5115382;28;20099;-66
2022/09/27 06:21:06;;;;;;;30.25;22.73;;;16.40;99.90;;;;;;5115005;28;20051;-67
2022/09/27 06:23:35;;;;;;;32.08;23.33;;;16.50;99.90;;;;;;5114478;28;20048;-68
2022/09/27 06:26:12;;;;;;;28.20;19.25;;;16.60;99.90;;;;;;5114968;28;20506;-68
2022/09/27 06:28:58;;;;;;;23.63;17.50;;;16.60;99.90;;;;;;5114897;28;20051;-71
2022/09/27 06:31:26;;;;;;;23.40;18.35;;;16.60;99.90;;;;;;5114837;28;20487;-70
2022/09/27 06:34:03;;;;;;;31.02;21.77;;;16.80;99.90;;;;;;5114796;28;20130;-70
2022/09/27 06:36:32;;;;;;;26.05;20.60;;;17.00;99.90;;;;;;5113106;28;20056;-68
2022/09/27 06:39:01;;;;;;;28.63;21.10;;;17.20;99.90;;;;;;5113802;27;20070;-68
2022/09/27 06:41:34;;;;;;;26.85;20.27;;;17.60;99.90;;;;;;5112353;27;20130;-68
2022/09/27 06:44:25;;;;;;;33.67;23.42;;;17.80;99.90;;;;;;5086022;28;20047;-68
2022/09/27 06:47:35;;;;;;;38.80;24.98;;;17.80;99.90;;;;;;5116848;28;20044;-67
2022/09/27 06:50:16;;;;;;;33.83;25.50;;;18.00;99.90;;;;;;5098175;28;20135;-66
2022/09/27 06:52:48;;;;;;;23.65;19.42;;;18.20;99.90;;;;;;5115527;27;20117;-68
2022/09/27 06:55:18;;;;;;;27.60;19.95;;;18.20;99.90;;;;;;5127181;27;20039;-68
2022/09/27 07:00:32;;;;;;;34.60;24.08;;;18.20;99.90;;;;;;5139481;27;20046;-69
2022/09/27 07:03:07;;;;;;;35.08;23.58;;;18.10;99.90;;;;;;5157794;27;20121;-68
2022/09/27 07:05:57;;;;;;;33.22;22.63;;;18.10;99.90;;;;;;5120640;27;20044;-68
2022/09/27 07:08:43;;;;;;;35.25;22.92;;;18.00;99.90;;;;;;5132242;27;20045;-68
2022/09/27 07:11:14;;;;;;;32.70;23.15;;;17.80;99.90;;;;;;5119989;27;20544;-67
2022/09/27 07:13:43;;;;;;;33.47;22.00;;;17.80;99.90;;;;;;5105404;28;20414;-68
2022/09/27 07:16:13;;;;;;;29.25;21.52;;;17.90;99.90;;;;;;5097942;28;20051;-69
2022/09/27 07:18:41;;;;;;;33.08;21.10;;;17.90;99.90;;;;;;5098366;28;20067;-69
2022/09/27 07:21:11;;;;;;;28.95;20.95;;;18.00;99.90;;;;;;5098000;28;20051;-69
2022/09/27 07:23:38;;;;;;;30.67;18.17;;;18.50;99.90;;;;;;5097693;28;20055;-68
2022/09/27 07:26:09;;;;;;;30.23;18.85;;;18.80;99.90;;;;;;5098056;28;20047;-69
2022/09/27 07:28:39;;;;;;;28.73;19.10;;;19.10;99.90;;;;;;5098383;28;20437;-69
2022/09/27 07:31:08;;;;;;;26.05;17.75;;;19.40;99.90;;;;;;5098158;28;20040;-69
2022/09/27 07:33:36;;;;;;;30.90;19.90;;;19.50;99.90;;;;;;5097815;28;20430;-68
2022/09/27 07:36:07;;;;;;;32.63;23.50;;;19.60;99.90;;;;;;5115997;28;20123;-68
2022/09/27 07:38:36;;;;;;;23.92;18.48;;;19.70;99.90;;;;;;5097743;28;20050;-68
2022/09/27 07:41:07;;;;;;;23.88;16.65;;;19.80;99.90;;;;;;5097670;28;20067;-68
2022/09/27 07:43:35;;;;;;;23.25;17.77;;;19.60;99.90;;;;;;5097642;28;20040;-68
2022/09/27 07:46:02;;;;;;;34.38;19.45;;;19.50;99.90;;;;;;5115824;28;20079;-68
2022/09/27 07:48:51;;;;;;;;;;;19.60;99.90;;;;;;5098222;28;20463;-68
2022/09/27 07:51:37;;;;;;;26.73;18.48;;;19.60;99.90;;;;;;5116348;28;19926;-68
2022/09/27 07:54:28;;;;;;;27.33;18.55;;;19.90;99.90;;;;;;5067924;28;20083;-68
2022/09/27 07:57:15;;;;;;;24.90;20.50;;;20.10;99.90;;;;;;5097575;28;20054;-69
2022/09/27 07:59:49;;;;;;;29.65;19.63;;;20.40;99.90;;;;;;5097431;28;20058;-70
2022/09/27 08:02:20;;;;;;;31.33;20.83;;;20.50;99.90;;;;;;5093739;28;20131;-68
2022/09/27 08:04:51;;;;;;;30.08;21.23;;;20.40;99.90;;;;;;5094447;28;20047;-68
2022/09/27 08:07:19;;;;;;;27.63;19.42;;;20.30;99.90;;;;;;5096827;28;20044;-68
2022/09/27 08:09:51;;;;;;;33.72;22.65;;;20.20;99.90;;;;;;5097295;28;20044;-68
2022/09/27 08:12:20;;;;;;;29.95;22.90;;;20.10;99.90;;;;;;5096623;28;20044;-68
2022/09/27 08:14:47;;;;;;;28.25;19.80;;;20.00;99.90;;;;;;5096778;28;20063;-68
2022/09/27 08:17:16;;;;;;;26.40;17.83;;;20.00;99.90;;;;;;5096876;28;20048;-68
2022/09/27 08:20:05;;;;;;;23.13;17.95;;;20.10;99.90;;;;;;5115322;28;20058;-68
2022/09/27 08:22:56;;;;;;;29.02;20.55;;;20.30;99.90;;;;;;5095499;28;20059;-69
2022/09/27 08:25:35;;;;;;;30.05;21.67;;;20.50;99.90;;;;;;5096901;28;20071;-68
2022/09/27 08:28:05;;;;;;;25.27;19.85;;;20.60;99.90;;;;;;5096826;28;20048;-68
2022/09/27 08:30:40;;;;;;;27.92;19.40;;;20.80;99.90;;;;;;5096782;28;20071;-68
2022/09/27 08:33:08;;;;;;;24.33;18.95;;;21.00;99.90;;;;;;5096151;28;20569;-67
2022/09/27 08:35:37;;;;;;;32.10;21.73;;;21.20;99.90;;;;;;5096492;28;20555;-67
2022/09/27 08:38:06;;;;;;;29.73;23.73;;;21.30;99.90;;;;;;5096801;28;20439;-68
2022/09/27 08:40:49;;;;;;;38.13;29.00;;;21.30;99.90;;;;;;5096327;28;20059;-68
2022/09/27 08:43:26;;;;;;;40.28;29.10;;;21.30;99.90;;;;;;5096168;28;20570;-69
2022/09/27 08:46:07;;;;;;;31.23;26.45;;;21.30;99.90;;;;;;5096352;28;20138;-68
2022/09/27 08:48:37;;;;;;;30.33;25.58;;;21.30;99.90;;;;;;5096511;28;20048;-69
2022/09/27 08:51:11;;;;;;;32.92;25.15;;;21.20;99.90;;;;;;5095899;28;20044;-68
2022/09/27 08:53:42;;;;;;;31.60;24.67;;;21.10;99.90;;;;;;5096166;28;20050;-69
2022/09/27 08:56:11;;;;;;;32.42;23.98;;;21.00;99.90;;;;;;5095966;28;20054;-68
2022/09/27 08:58:48;;;;;;;28.63;22.27;;;20.60;99.90;;;;;;5096511;28;20047;-68
2022/09/27 09:01:21;;;;;;;25.48;20.42;;;20.40;99.90;;;;;;5090725;28;20055;-68
2022/09/27 09:03:59;;;;;;;26.65;22.27;;;20.30;99.90;;;;;;5074929;28;20143;-70
2022/09/27 09:06:33;;;;;;;36.13;23.92;;;20.20;99.90;;;;;;5090223;28;20398;-69
2022/09/27 09:09:11;;;;;;;22.80;18.27;;;20.20;99.90;;;;;;5096055;28;20101;-69
2022/09/27 09:14:56;;;;;;;20.90;16.58;;;20.10;99.90;;;;;;5093712;28;20070;-69
2022/09/27 09:17:32;;;;;;;22.90;16.83;;;20.10;99.90;;;;;;5075402;28;20052;-68
2022/09/27 09:20:33;;;;;;;20.20;16.00;;;20.30;99.90;;;;;;5061786;28;20117;-68
2022/09/27 09:23:23;;;;;;;26.67;18.90;;;20.40;99.90;;;;;;5092244;28;20406;-68
2022/09/27 09:25:58;;;;;;;24.38;17.77;;;20.50;99.90;;;;;;5080741;28;20143;-68
2022/09/27 09:28:43;;;;;;;24.52;18.05;;;20.40;99.90;;;;;;5107088;28;20078;-70
2022/09/27 09:31:22;;;;;;;23.40;15.60;;;20.20;99.90;;;;;;5094650;28;20093;-68
2022/09/27 09:33:54;;;;;;;24.63;18.27;;;20.20;99.90;;;;;;5107332;28;20430;-69
2022/09/27 09:36:30;;;;;;;23.55;17.33;;;20.30;99.90;;;;;;5098671;28;20158;-67
2022/09/27 09:39:02;;;;;;;21.98;15.77;;;20.30;99.90;;;;;;5105729;28;20044;-67
2022/09/27 09:41:34;;;;;;;20.55;17.52;;;20.30;99.90;;;;;;5104923;28;20448;-68
2022/09/27 09:44:10;;;;;;;26.27;18.75;;;20.30;99.90;;;;;;5095260;28;20495;-69
2022/09/27 09:46:40;;;;;;;20.07;16.37;;;20.50;99.90;;;;;;5091979;28;20079;-68
2022/09/27 09:49:39;;;;;;;25.13;18.52;;;20.70;99.90;;;;;;5070006;28;20055;-69
2022/09/27 09:52:14;;;;;;;24.02;16.00;;;20.80;99.90;;;;;;5074403;28;20278;-68
2022/09/27 09:54:47;;;;;;;20.00;16.35;;;20.70;99.90;;;;;;5100556;28;20044;-69
2022/09/27 09:57:18;;;;;;;23.17;17.65;;;20.60;99.90;;;;;;5077205;28;20128;-69
2022/09/27 10:00:16;;;;;;;22.42;18.60;;;20.50;99.90;;;;;;5089097;28;20051;-71
2022/09/27 10:02:46;;;;;;;24.52;21.10;;;20.00;99.90;;;;;;5088360;28;20056;-67
2022/09/27 10:05:20;;;;;;;26.98;19.98;;;19.70;99.90;;;;;;5108423;28;20494;-67
2022/09/27 10:07:53;;;;;;;29.27;23.33;;;19.50;99.90;;;;;;5091531;28;20080;-66
2022/09/27 10:10:23;;;;;;;34.25;21.65;;;19.10;99.90;;;;;;5087793;28;20052;-67
2022/09/27 10:12:51;;;;;;;30.58;19.52;;;18.90;99.90;;;;;;5088640;28;20045;-68
2022/09/27 10:15:25;;;;;;;34.03;21.88;;;18.40;99.90;;;;;;5092196;28;20033;-68
2022/09/27 10:17:55;;;;;;;37.60;22.88;;;17.90;99.90;;;;;;5097349;28;20052;-68
2022/09/27 10:20:30;;;;;;;39.67;23.42;;;17.40;99.90;;;;;;5097373;28;20071;-68
2022/09/27 10:23:06;;;;;;;38.63;27.37;;;17.10;99.90;;;;;;5097007;28;20543;-68
2022/09/27 10:25:56;;;;;;;45.00;27.08;;;16.90;99.90;;;;;;5084989;28;20081;-67
2022/09/27 10:28:37;;;;;;;51.25;31.98;;;16.80;99.90;;;;;;5092466;28;20044;-68
2022/09/27 10:31:07;;;;;;;54.45;33.58;;;16.60;99.90;;;;;;5090955;28;20406;-69
2022/09/27 10:33:54;;;;;;;57.60;37.08;;;16.60;99.90;;;;;;5113010;28;20139;-67
2022/09/27 10:36:25;;;;;;;74.65;43.60;;;16.60;99.90;;;;;;5103933;28;20040;-67
2022/09/27 10:38:54;;;;;;;81.10;47.67;;;16.60;99.90;;;;;;5111212;28;20444;-67
2022/09/27 10:41:35;;;;;;;98.05;51.65;;;16.60;99.90;;;;;;5113528;28;20138;-67
2022/09/27 10:44:24;;;;;;;90.30;49.00;;;16.60;99.90;;;;;;5114532;28;20106;-68
2022/09/27 10:47:09;;;;;;;82.68;47.53;;;16.60;99.90;;;;;;5121026;28;20050;-67
2022/09/27 10:50:06;;;;;;;80.53;44.72;;;16.60;99.90;;;;;;5106294;28;20119;-66
2022/09/27 10:53:03;;;;;;;84.35;44.13;;;16.60;99.90;;;;;;5107797;28;20062;-68
2022/09/27 10:55:35;;;;;;;79.95;41.22;;;16.50;99.90;;;;;;5096617;28;20036;-68
2022/09/27 10:58:04;;;;;;;73.95;39.95;;;16.60;99.90;;;;;;5096111;28;20036;-69
2022/09/27 11:00:34;;;;;;;66.38;37.72;;;16.50;99.90;;;;;;5081125;28;20056;-68
2022/09/27 11:03:08;;;;;;;60.42;34.88;;;16.40;99.90;;;;;;5080189;28;20139;-67
2022/09/27 11:05:39;;;;;;;94.53;49.50;;;16.50;99.90;;;;;;5083863;28;20048;-66
2022/09/27 11:08:23;;;;;;;77.50;41.03;;;16.50;99.90;;;;;;5099768;28;20043;-66
2022/09/27 11:11:07;;;;;;;84.22;41.85;;;16.30;99.90;;;;;;5110374;28;20044;-70
2022/09/27 11:13:38;;;;;;;78.22;42.22;;;16.30;99.90;;;;;;5098304;28;20051;-66
2022/09/27 11:16:27;;;;;;;97.55;53.40;;;16.30;99.90;;;;;;5098435;28;20409;-67
2022/09/27 11:19:04;;;;;;;96.78;50.60;;;16.30;99.90;;;;;;5098698;28;20498;-68
2022/09/27 11:21:44;;;;;;;86.05;47.97;;;16.30;99.90;;;;;;5098229;28;20067;-68
2022/09/27 11:24:30;;;;;;;80.95;47.97;;;16.30;99.90;;;;;;5101769;28;20093;-67
2022/09/27 11:27:09;;;;;;;83.72;46.92;;;16.40;99.90;;;;;;5101980;28;20210;-67
2022/09/27 11:29:47;;;;;;;83.75;46.42;;;16.40;99.90;;;;;;5120026;27;20410;-67
2022/09/27 11:33:08;;;;;;;72.82;44.90;;;16.60;99.90;;;;;;5096605;27;20505;-68
2022/09/27 11:35:51;;;;;;;85.57;52.83;;;16.80;99.90;;;;;;5104886;27;20047;-69
2022/09/27 11:38:26;;;;;;;68.43;42.15;;;17.00;99.90;;;;;;5108935;27;20038;-68
2022/09/27 11:41:11;;;;;;;69.17;43.10;;;17.30;99.90;;;;;;5113292;27;20051;-68
2022/09/27 11:43:55;;;;;;;55.45;36.38;;;17.50;99.90;;;;;;5107688;28;20096;-67
2022/09/27 11:46:30;;;;;;;51.47;31.50;;;17.70;99.90;;;;;;5099432;27;20043;-68
2022/09/27 11:49:23;;;;;;;42.22;29.23;;;17.90;99.90;;;;;;5109731;27;20065;-67
2022/09/27 11:52:25;;;;;;;34.67;22.52;;;18.00;99.90;;;;;;5117999;27;20103;-68
2022/09/27 11:55:15;;;;;;;30.13;20.77;;;17.80;99.90;;;;;;5106191;28;20055;-67
2022/09/27 11:57:48;;;;;;;30.23;20.40;;;17.70;99.90;;;;;;5085977;28;20075;-66
2022/09/27 12:00:20;;;;;;;22.38;15.00;;;17.80;99.90;;;;;;5114710;28;20066;-66
2022/09/27 12:03:33;;;;;;;20.08;12.73;;;17.90;99.90;;;;;;5093363;28;20082;-67
2022/09/27 12:06:09;;;;;;;21.73;12.43;;;17.90;99.90;;;;;;5077642;28;20036;-67
2022/09/27 12:08:58;;;;;;;15.82;10.20;;;18.00;99.90;;;;;;5073524;28;20052;-67
2022/09/27 12:11:30;;;;;;;19.77;13.48;;;17.90;99.90;;;;;;5090430;28;20105;-67
2022/09/27 12:14:02;;;;;;;38.33;15.00;;;17.80;99.90;;;;;;5109374;28;20093;-67
2022/09/27 12:16:32;;;;;;;21.90;15.75;;;17.90;99.90;;;;;;5106050;28;20041;-67
2022/09/27 12:19:03;;;;;;;18.08;12.13;;;18.10;99.90;;;;;;5094748;28;20036;-66
2022/09/27 12:21:51;;;;;;;19.83;12.82;;;18.10;99.90;;;;;;5093791;28;20507;-66
2022/09/27 12:24:22;;;;;;;20.13;13.40;;;18.00;99.90;;;;;;5093655;28;20056;-66
2022/09/27 12:27:16;;;;;;;15.32;10.63;;;17.90;99.90;;;;;;5110847;28;20415;-66
2022/09/27 12:29:46;;;;;;;17.90;12.57;;;17.90;99.90;;;;;;5090092;28;20395;-67
2022/09/27 12:32:18;;;;;;;20.15;13.63;;;17.70;99.90;;;;;;5110531;28;20048;-66
2022/09/27 12:34:52;;;;;;;17.13;12.38;;;17.60;99.90;;;;;;5110192;28;20062;-66
2022/09/27 12:37:25;;;;;;;23.00;15.60;;;17.60;99.90;;;;;;5110356;28;20066;-66
2022/09/27 12:39:56;;;;;;;17.85;11.45;;;17.80;99.90;;;;;;5110303;28;20075;-65
2022/09/27 12:42:36;;;;;;;16.73;10.82;;;18.00;99.90;;;;;;5109866;28;20043;-66
2022/09/27 12:45:15;;;;;;;18.33;13.43;;;18.30;99.90;;;;;;5106833;28;20048;-65
2022/09/27 12:47:57;;;;;;;15.30;10.93;;;18.60;99.90;;;;;;5093121;28;20044;-65
2022/09/27 12:50:36;;;;;;;17.42;11.32;;;18.80;99.90;;;;;;5110358;28;20054;-67
2022/09/27 12:53:12;;;;;;;18.35;10.98;;;18.80;99.90;;;;;;5089709;28;20052;-65
2022/09/27 12:56:19;;;;;;;14.30;8.60;;;18.80;99.90;;;;;;5081796;28;20043;-66
2022/09/27 12:59:16;;;;;;;14.68;10.10;;;18.80;99.90;;;;;;5084719;28;20572;-66
2022/09/27 13:02:12;;;;;;;17.85;12.75;;;18.90;99.90;;;;;;5088412;28;20097;-66
2022/09/27 13:05:06;;;;;;;12.70;7.82;;;18.90;99.90;;;;;;5097183;28;20402;-65
2022/09/27 13:07:51;;;;;;;15.57;10.10;;;18.80;99.90;;;;;;5097660;28;20101;-67
2022/09/27 13:10:40;;;;;;;15.18;10.20;;;18.90;99.90;;;;;;5101527;28;20514;-80
2022/09/27 13:13:25;;;;;;;18.48;11.73;;;18.90;99.90;;;;;;5089974;28;20083;-66
2022/09/27 13:15:58;;;;;;;16.50;12.15;;;18.90;99.90;;;;;;5104248;28;20032;-66
2022/09/27 13:18:50;;;;;;;17.25;12.07;;;18.80;99.90;;;;;;5090746;28;20049;-65
2022/09/27 13:21:51;;;;;;;73.70;47.90;;;18.90;99.90;;;;;;5119202;27;20043;-64
2022/09/27 13:24:46;;;;;;;47.83;35.78;;;19.00;99.90;;;;;;5111037;28;20402;-67